Time;durP1;ratioP1;P1;durP2;ratioP2;P2;SDS_P1;SDS_P2;PMS_P1;PMS_P2;Temp;Humidity;BMP_temperature;BMP_pressure;BME280_temperature;BME280_humidity;BME280_pressure;Samples;Min_cycle;Max_cycle;Signal;HPM_P1;HPM_P2
2022/06/17 00:00:51;;;;;;;8.15;3.65;;;;;;;13.25;62.49;98835.72;4958065;28;20047;-65
2022/06/17 00:03:18;;;;;;;5.03;3.20;;;;;;;13.24;62.12;98840.25;4957923;28;20045;-64
2022/06/17 00:05:44;;;;;;;4.28;3.05;;;;;;;13.22;62.56;98829.09;4975121;28;20051;-66
2022/06/17 00:08:22;;;;;;;5.68;3.33;;;;;;;13.22;62.76;98834.41;4975091;28;20105;-65
2022/06/17 00:10:48;;;;;;;5.40;3.35;;;;;;;13.20;62.55;98836.53;4974783;28;20053;-65
2022/06/17 00:13:16;;;;;;;8.25;3.50;;;;;;;13.18;62.46;98833.34;4974786;28;20051;-66
2022/06/17 00:15:45;;;;;;;7.63;3.47;;;;;;;13.16;62.57;98833.59;4957374;28;20055;-65
2022/06/17 00:18:12;;;;;;;7.90;3.63;;;;;;;13.16;63.10;98832.81;4957949;28;20045;-65
2022/06/17 00:20:39;;;;;;;6.18;3.50;;;;;;;13.15;62.72;98839.22;4974482;28;20038;-66
2022/06/17 00:23:17;;;;;;;11.23;3.63;;;;;;;13.14;62.92;98842.91;4974844;28;20057;-65
2022/06/17 00:25:45;;;;;;;8.50;3.83;;;;;;;13.11;63.38;98840.78;4957599;28;20066;-65
2022/06/17 00:28:13;;;;;;;15.00;4.28;;;;;;;13.07;63.87;98840.53;4974384;28;20038;-64
2022/06/17 00:30:39;;;;;;;9.27;4.07;;;;;;;13.05;63.61;98847.97;4957391;28;20058;-65
2022/06/17 00:33:05;;;;;;;8.63;3.83;;;;;;;13.05;63.47;98858.63;4974321;28;20516;-65
2022/06/17 00:35:36;;;;;;;4.95;3.20;;;;;;;13.01;63.49;98859.44;4974817;28;20125;-65
2022/06/17 00:38:03;;;;;;;8.57;3.47;;;;;;;12.98;63.65;98851.97;4974502;28;20583;-65
2022/06/17 00:40:32;;;;;;;6.32;3.40;;;;;;;12.98;63.62;98858.09;4974640;28;20078;-65
2022/06/17 00:43:01;;;;;;;6.28;3.10;;;;;;;13.03;63.76;98859.94;4974162;28;20424;-65
2022/06/17 00:45:36;;;;;;;5.20;3.08;;;;;;;12.99;63.21;98842.94;4956783;28;20527;-65
2022/06/17 00:48:07;;;;;;;7.40;2.90;;;;;;;13.10;63.24;98853.31;4957125;28;20046;-65
2022/06/17 00:50:55;;;;;;;4.57;2.85;;;;;;;13.19;63.22;98853.56;4956664;28;20390;-65
2022/06/17 00:53:23;;;;;;;6.75;2.83;;;;;;;13.31;63.06;98854.13;4956258;28;20226;-65
2022/06/17 00:55:57;;;;;;;6.38;3.15;;;;;;;13.49;62.55;98858.09;4956923;28;20047;-66
2022/06/17 00:58:28;;;;;;;3.28;2.58;;;;;;;13.67;61.76;98859.38;4956561;28;20046;-66
2022/06/17 01:00:56;;;;;;;11.25;4.35;;;;;;;13.89;61.22;98855.59;4974108;28;20047;-66
2022/06/17 01:03:26;;;;;;;6.03;3.20;;;;;;;14.13;61.26;98859.22;4956497;28;20050;-65
2022/06/17 01:05:56;;;;;;;7.82;3.42;;;;;;;14.34;60.21;98857.25;4956843;28;20035;-65
2022/06/17 01:11:19;;;;;;;4.75;2.75;;;;;;;14.94;58.44;98859.84;4956489;28;20042;-66
2022/06/17 01:13:48;;;;;;;5.70;3.00;;;;;;;15.16;57.71;98860.19;4956171;28;20093;-66
2022/06/17 01:16:14;;;;;;;3.15;2.40;;;;;;;15.47;56.96;98861.78;4956169;28;20109;-65
2022/06/17 01:18:43;;;;;;;4.47;2.95;;;;;;;15.72;55.66;98863.44;4940569;28;20125;-65
2022/06/17 01:21:40;;;;;;;4.22;2.60;;;;;;;16.05;55.13;98861.72;4940295;28;20059;-65
2022/06/17 01:24:08;;;;;;;7.07;2.78;;;;;;;16.31;54.51;98860.31;4956468;28;20561;-65
2022/06/17 01:26:35;;;;;;;3.55;2.80;;;;;;;16.54;53.33;98857.88;4956338;28;20089;-65
2022/06/17 01:29:01;;;;;;;5.30;2.78;;;;;;;16.82;52.40;98863.38;4973170;28;20042;-65
2022/06/17 01:31:26;;;;;;;6.05;2.70;;;;;;;17.06;51.73;98864.09;4955955;28;20043;-66
2022/06/17 01:33:53;;;;;;;7.30;3.08;;;;;;;17.29;51.02;98862.34;4956027;28;20039;-64
2022/06/17 01:36:26;;;;;;;6.20;3.83;;;;;;;17.62;50.22;98856.97;4956190;28;20510;-65
2022/06/17 01:38:56;;;;;;;8.50;4.18;;;;;;;18.06;49.47;98858.28;4939927;28;20079;-66
2022/06/17 01:41:30;;;;;;;5.78;4.00;;;;;;;18.50;48.19;98860.31;4955797;28;20051;-65
2022/06/17 01:43:59;;;;;;;4.25;3.63;;;;;;;18.79;47.21;98859.91;4939951;28;20050;-65
2022/06/17 01:46:36;;;;;;;6.15;3.72;;;;;;;18.65;47.49;98859.16;4972980;28;20046;-65
2022/06/17 01:49:09;;;;;;;4.05;3.53;;;;;;;18.56;47.44;98860.97;4939904;28;20122;-65
2022/06/17 01:51:40;;;;;;;5.18;3.65;;;;;;;18.68;47.86;98860.44;4955780;28;20556;-66
2022/06/17 01:54:07;;;;;;;;;;;;;;;18.72;47.36;98867.59;4973478;28;20046;-65
2022/06/17 01:56:34;;;;;;;4.07;3.00;;;;;;;18.90;47.64;98857.81;4955568;28;19925;-65
2022/06/17 01:59:05;;;;;;;3.78;2.70;;;;;;;19.35;46.10;98855.06;4939969;28;20412;-65
2022/06/17 02:01:35;;;;;;;7.47;3.08;;;;;;;19.97;44.61;98867.69;4940051;28;20090;-66
2022/06/17 02:04:08;;;;;;;4.07;2.67;;;;;;;19.73;44.95;98873.47;4939296;28;20050;-65
2022/06/17 02:06:48;;;;;;;5.47;3.00;;;;;;;19.17;45.79;98872.19;4939917;28;20042;-65
2022/06/17 02:09:14;;;;;;;4.03;2.63;;;;;;;18.66;47.06;98876.84;4955462;28;20122;-65
2022/06/17 02:11:40;;;;;;;5.70;2.97;;;;;;;18.67;47.95;98874.97;4939383;28;20042;-65
2022/06/17 02:14:15;;;;;;;4.82;3.22;;;;;;;19.42;45.95;98868.88;4955483;28;20047;-65
2022/06/17 02:16:54;;;;;;;6.35;3.08;;;;;;;19.15;46.57;98872.53;4972545;28;20112;-65
2022/06/17 02:19:41;;;;;;;3.80;2.78;;;;;;;18.69;47.54;98870.88;4955569;28;20055;-66
2022/06/17 02:22:12;;;;;;;5.03;2.83;;;;;;;18.21;49.01;98873.28;4955353;28;20125;-64
2022/06/17 02:24:39;;;;;;;5.80;2.85;;;;;;;18.02;49.62;98876.84;4955580;28;20058;-66
2022/06/17 02:27:08;;;;;;;4.57;2.80;;;;;;;17.83;50.20;98878.84;4939431;28;20133;-66
2022/06/17 02:29:36;;;;;;;3.37;2.80;;;;;;;17.61;50.71;98871.44;4955092;28;20046;-65
2022/06/17 02:32:04;;;;;;;6.00;3.30;;;;;;;17.50;51.08;98873.53;4972590;28;20047;-65
2022/06/17 02:34:37;;;;;;;7.53;3.20;;;;;;;17.45;51.41;98881.66;4955701;28;20047;-64
2022/06/17 02:37:09;;;;;;;9.38;3.10;;;;;;;17.38;51.59;98875.88;4939418;28;20051;-64
2022/06/17 02:39:40;;;;;;;7.20;3.17;;;;;;;17.39;52.11;98880.16;4972696;28;20038;-65
2022/06/17 02:42:15;;;;;;;6.75;3.03;;;;;;;17.44;51.80;98867.47;4939330;28;20082;-65
2022/06/17 02:44:42;;;;;;;5.63;2.90;;;;;;;17.48;51.70;98860.41;4939290;28;20042;-64
2022/06/17 02:47:09;;;;;;;4.50;2.97;;;;;;;17.64;51.74;98870.84;4939101;28;20120;-65
2022/06/17 02:49:35;;;;;;;5.95;2.60;;;;;;;18.71;49.09;98873.28;4938848;28;20559;-65
2022/06/17 02:52:04;;;;;;;4.70;2.58;;;;;;;19.40;47.11;98867.59;4955177;28;20051;-67
2022/06/17 02:54:42;;;;;;;6.40;2.60;;;;;;;19.81;45.83;98871.94;4955134;28;20047;-67
2022/06/17 02:57:13;;;;;;;7.25;2.80;;;;;;;19.56;46.28;98879.56;4955260;28;20093;-67
2022/06/17 02:59:43;;;;;;;3.33;2.40;;;;;;;19.24;47.21;98884.13;4923200;28;20097;-66
2022/06/17 03:02:23;;;;;;;3.88;2.75;;;;;;;19.21;47.72;98878.56;4938983;28;20051;-66
2022/06/17 03:04:54;;;;;;;3.97;2.63;;;;;;;19.45;47.29;98891.66;4972199;28;20449;-65
2022/06/17 03:07:22;;;;;;;4.35;2.65;;;;;;;19.12;47.94;98891.13;4955191;28;20087;-66
2022/06/17 03:09:52;;;;;;;6.28;2.63;;;;;;;18.76;48.86;98889.28;4954939;28;20047;-66
2022/06/17 03:12:27;;;;;;;4.65;2.97;;;;;;;18.43;49.81;98888.63;4955014;28;20051;-66
2022/06/17 03:15:05;;;;;;;4.35;2.65;;;;;;;18.16;50.88;98895.63;4957451;28;20137;-66
2022/06/17 03:17:40;;;;;;;4.80;2.70;;;;;;;17.89;51.68;98883.81;4943090;28;20154;-65
2022/06/17 03:20:08;;;;;;;4.65;2.95;;;;;;;17.86;51.86;98889.78;4942330;28;20042;-64
2022/06/17 03:22:35;;;;;;;5.22;3.13;;;;;;;17.84;52.12;98889.28;4942157;28;20062;-66
2022/06/17 03:25:22;;;;;;;7.47;2.63;;;;;;;17.85;52.19;98888.19;4975995;28;20038;-65
2022/06/17 03:27:56;;;;;;;8.63;2.95;;;;;;;17.81;52.52;98884.50;4975760;28;20058;-65
2022/06/17 03:30:27;;;;;;;7.13;3.45;;;;;;;17.83;52.74;98882.31;4958535;28;20038;-66
2022/06/17 03:33:18;;;;;;;5.80;2.70;;;;;;;17.87;52.61;98893.25;4926291;28;20043;-67
2022/06/17 03:35:49;;;;;;;5.78;3.00;;;;;;;17.87;52.47;98885.19;4942897;28;20062;-66
2022/06/17 03:38:41;;;;;;;4.43;2.70;;;;;;;17.83;52.77;98879.66;4942228;28;20521;-66
2022/06/17 03:41:41;;;;;;;5.25;2.47;;;;;;;17.96;52.75;98879.94;4958334;28;20129;-65
2022/06/17 03:44:15;;;;;;;3.00;2.38;;;;;;;18.34;51.98;98875.94;4944446;28;20106;-66
2022/06/17 03:46:55;;;;;;;8.77;2.60;;;;;;;19.36;49.39;98878.19;4941860;28;20130;-65
2022/06/17 03:49:24;;;;;;;;;;;;;;;19.59;48.48;98881.63;4958217;28;20464;-66
2022/06/17 03:51:53;;;;;;;3.42;2.63;;;;;;;19.35;48.98;98876.56;4958062;28;20386;-65
2022/06/17 03:54:19;;;;;;;5.20;2.35;;;;;;;19.43;49.14;98878.53;4941686;28;20038;-65
2022/06/17 03:56:49;;;;;;;3.25;2.58;;;;;;;20.14;47.12;98875.81;4957733;28;20137;-67
2022/06/17 03:59:16;;;;;;;;;;;;;;;20.68;46.05;98886.41;4942125;28;20061;-66
2022/06/17 04:01:54;;;;;;;5.95;3.00;;;;;;;21.19;44.74;98889.38;4957895;28;20077;-66
2022/06/17 04:04:29;;;;;;;4.90;2.70;;;;;;;21.63;44.13;98887.41;4957544;28;20043;-66
2022/06/17 04:06:58;;;;;;;3.72;2.85;;;;;;;21.33;44.40;98881.91;4957556;28;20051;-66
2022/06/17 04:09:37;;;;;;;4.78;2.40;;;;;;;21.13;44.72;98880.66;4942669;28;20150;-66
2022/06/17 04:12:25;;;;;;;5.68;2.45;;;;;;;21.01;45.01;98883.22;4957671;28;20053;-67
2022/06/17 04:15:17;;;;;;;;;;;;;;;21.54;44.47;98885.53;4957896;28;20054;-67
2022/06/17 04:17:48;;;;;;;7.82;2.80;;;;;;;21.51;43.91;98878.06;4941303;28;19933;-66
2022/06/17 04:20:54;;;;;;;2.90;2.10;;;;;;;21.51;43.88;98874.59;4941647;28;20043;-66
2022/06/17 04:23:24;;;;;;;4.00;2.20;;;;;;;21.71;43.77;98875.81;4957138;28;20051;-66
2022/06/17 04:26:14;;;;;;;3.88;2.05;;;;;;;22.26;42.23;98882.22;4956610;28;20046;-65
2022/06/17 04:28:58;;;;;;;6.97;2.65;;;;;;;22.46;41.73;98873.34;4941174;28;20542;-67
2022/06/17 04:31:29;;;;;;;7.15;2.10;;;;;;;22.83;40.46;98873.56;4941680;28;20053;-65
2022/06/17 04:34:10;;;;;;;2.92;2.28;;;;;;;23.19;39.64;98881.03;4942369;28;20043;-67
2022/06/17 04:36:44;;;;;;;2.53;1.92;;;;;;;23.34;39.06;98872.28;4941199;28;20055;-66
2022/06/17 04:39:27;;;;;;;5.13;2.05;;;;;;;23.57;38.80;98872.66;4956721;28;20042;-66
2022/06/17 04:42:16;;;;;;;2.70;2.00;;;;;;;23.70;38.19;98870.00;4926817;28;20544;-66
2022/06/17 04:44:43;;;;;;;4.85;1.85;;;;;;;23.79;38.54;98870.69;4974407;28;20043;-66
2022/06/17 04:47:12;;;;;;;2.28;2.03;;;;;;;23.73;38.57;98872.81;4956714;28;20520;-67
2022/06/17 04:49:57;;;;;;;4.00;2.05;;;;;;;23.57;38.35;98885.41;4956476;28;20393;-66
2022/06/17 04:52:36;;;;;;;2.72;1.65;;;;;;;23.34;39.07;98880.38;4941051;28;20108;-67
2022/06/17 04:55:42;;;;;;;5.07;2.20;;;;;;;23.59;39.14;98875.03;4866202;29;20053;-66
2022/06/17 04:58:20;;;;;;;2.78;1.83;;;;;;;23.61;38.41;98864.66;4862037;29;20099;-67
2022/06/17 05:00:54;;;;;;;3.53;1.95;;;;;;;23.84;38.54;98865.03;4925372;28;20082;-67
2022/06/17 05:03:29;;;;;;;5.78;2.20;;;;;;;24.11;38.03;98858.16;4925733;28;20043;-65
2022/06/17 05:06:13;;;;;;;4.00;1.80;;;;;;;24.38;37.17;98866.69;4940359;28;20493;-67
2022/06/17 05:09:01;;;;;;;2.85;1.98;;;;;;;24.38;37.22;98863.97;4956178;28;20045;-67
2022/06/17 05:11:37;;;;;;;4.80;2.10;;;;;;;24.14;38.11;98867.50;4940375;28;20402;-65
2022/06/17 05:14:19;;;;;;;4.40;2.20;;;;;;;23.74;39.20;98869.00;4924850;28;20035;-68
2022/06/17 05:16:45;;;;;;;11.48;2.47;;;;;;;23.44;39.47;98867.56;4973439;28;20093;-65
2022/06/17 05:19:11;;;;;;;3.92;2.10;;;;;;;23.20;39.89;98871.78;4955925;28;20105;-66
2022/06/17 05:21:37;;;;;;;4.00;2.40;;;;;;;22.88;39.94;98873.31;4939817;28;20042;-66
2022/06/17 05:24:17;;;;;;;5.22;2.30;;;;;;;22.87;40.79;98879.84;4955791;28;20046;-66
2022/06/17 05:26:43;;;;;;;4.53;2.00;;;;;;;22.76;40.57;98865.94;4973481;28;20050;-68
2022/06/17 05:29:10;;;;;;;4.93;1.83;;;;;;;22.65;41.78;98862.88;4940373;28;20548;-67
2022/06/17 05:31:49;;;;;;;4.32;1.98;;;;;;;22.42;41.87;98865.13;4956189;28;20066;-66
2022/06/17 05:34:16;;;;;;;2.85;1.83;;;;;;;22.39;42.33;98865.78;4956006;28;20461;-66
2022/06/17 05:36:42;;;;;;;3.65;1.98;;;;;;;22.45;42.18;98867.16;4955603;28;20050;-67
2022/06/17 05:39:08;;;;;;;3.08;1.70;;;;;;;22.28;41.97;98864.56;4972599;28;20530;-67
2022/06/17 05:41:34;;;;;;;4.65;1.80;;;;;;;22.20;41.94;98863.50;4955936;28;20093;-69
2022/06/17 05:44:00;;;;;;;3.22;2.00;;;;;;;22.33;42.02;98861.69;4923740;28;20468;-68
2022/06/17 05:46:47;;;;;;;3.15;1.80;;;;;;;22.30;41.52;98862.34;4954972;28;20063;-66
2022/06/17 05:49:31;;;;;;;2.83;1.52;;;;;;;22.48;40.86;98852.22;4972943;28;20050;-67
2022/06/17 05:52:14;;;;;;;3.05;1.98;;;;;;;22.64;41.02;98861.28;4955518;28;20536;-67
2022/06/17 05:54:59;;;;;;;5.63;1.90;;;;;;;22.87;39.21;98853.63;4957200;28;20043;-67
2022/06/17 05:57:24;;;;;;;6.13;1.65;;;;;;;23.16;38.70;98848.47;4972784;28;20421;-66
2022/06/17 05:59:50;;;;;;;5.00;1.63;;;;;;;23.25;38.77;98844.53;4955567;28;20057;-67
2022/06/17 06:02:21;;;;;;;2.25;1.90;;;;;;;23.35;38.61;98844.13;4955773;28;20047;-69
2022/06/17 06:04:59;;;;;;;4.10;1.75;;;;;;;23.56;38.32;98827.81;4955701;28;20045;-68
2022/06/17 06:07:27;;;;;;;3.15;1.48;;;;;;;23.68;37.90;98832.44;4972881;28;20046;-66
2022/06/17 06:09:54;;;;;;;2.38;1.50;;;;;;;23.75;37.85;98835.38;4973012;28;20134;-68
2022/06/17 06:12:20;;;;;;;1.55;1.40;;;;;;;23.90;37.20;98828.50;4955263;28;20133;-67
2022/06/17 06:14:47;;;;;;;3.47;1.67;;;;;;;23.85;36.94;98825.22;4954978;28;20038;-67
2022/06/17 06:17:16;;;;;;;2.42;1.50;;;;;;;23.89;37.49;98826.16;4955243;28;20066;-68
2022/06/17 06:19:44;;;;;;;2.38;1.50;;;;;;;23.97;37.59;98825.22;4939536;28;20157;-67
2022/06/17 06:22:10;;;;;;;7.85;1.80;;;;;;;24.04;38.01;98820.03;4972343;28;20047;-67
2022/06/17 06:24:36;;;;;;;2.13;1.80;;;;;;;23.97;37.57;98827.94;4955054;28;20047;-67
2022/06/17 06:27:02;;;;;;;1.58;1.48;;;;;;;23.94;37.54;98825.91;4955219;28;20045;-67
2022/06/17 06:29:39;;;;;;;3.20;1.70;;;;;;;23.89;37.44;98834.28;4955187;28;20480;-66
2022/06/17 06:32:05;;;;;;;2.80;1.83;;;;;;;23.73;38.11;98836.84;4954809;28;20101;-66
2022/06/17 06:34:40;;;;;;;3.03;1.70;;;;;;;23.55;38.48;98838.94;4940261;28;20050;-67
2022/06/17 06:37:08;;;;;;;2.38;1.70;;;;;;;23.27;38.65;98842.31;4954943;28;20543;-67
2022/06/17 06:39:34;;;;;;;2.60;1.90;;;;;;;23.01;40.29;98834.47;4938782;28;20050;-67
2022/06/17 06:42:00;;;;;;;3.25;1.90;;;;;;;22.97;39.87;98835.44;4938513;28;20074;-67
2022/06/17 06:44:27;;;;;;;3.25;2.35;;;;;;;22.92;40.20;98841.03;4954692;28;20097;-67
2022/06/17 06:47:17;;;;;;;3.53;1.63;;;;;;;22.82;40.96;98828.72;4941990;28;20055;-67
2022/06/17 06:50:10;;;;;;;3.00;1.70;;;;;;;22.78;40.21;98823.19;4964968;28;20050;-67
2022/06/17 06:52:35;;;;;;;4.05;2.40;;;;;;;22.60;41.09;98816.38;4976086;28;20058;-65
2022/06/17 06:55:03;;;;;;;4.32;2.05;;;;;;;22.63;41.19;98815.72;4942664;28;20049;-65
2022/06/17 06:57:30;;;;;;;8.15;2.15;;;;;;;22.60;40.49;98817.16;4958694;28;20039;-66
2022/06/17 07:00:00;;;;;;;5.10;2.03;;;;;;;22.74;41.29;98822.28;4942670;28;20124;-66
2022/06/17 07:02:29;;;;;;;5.85;1.98;;;;;;;22.63;40.78;98821.09;4959285;28;20663;-65
2022/06/17 07:04:55;;;;;;;3.60;1.77;;;;;;;22.71;41.62;98808.63;4975937;28;20134;-66
2022/06/17 07:07:20;;;;;;;3.15;1.83;;;;;;;22.79;40.84;98813.16;4958343;28;20054;-67
2022/06/17 07:09:46;;;;;;;2.00;1.73;;;;;;;22.86;41.42;98818.84;4976019;28;20050;-66
2022/06/17 07:12:12;;;;;;;1.95;1.75;;;;;;;22.98;41.12;98807.31;4975543;28;20078;-67
2022/06/17 07:14:37;;;;;;;6.22;1.90;;;;;;;22.99;40.80;98822.41;4975855;28;20043;-67
2022/06/17 07:17:03;;;;;;;4.25;2.10;;;;;;;22.95;40.91;98818.78;4975789;28;20066;-67
2022/06/17 07:19:29;;;;;;;3.22;1.52;;;;;;;22.88;40.49;98819.28;4958405;28;20046;-65
2022/06/17 07:21:55;;;;;;;2.80;1.90;;;;;;;22.93;40.88;98815.59;4975542;28;20117;-67
2022/06/17 07:24:21;;;;;;;2.20;1.85;;;;;;;22.98;40.14;98812.72;4975776;28;20065;-66
2022/06/17 07:26:46;;;;;;;1.80;1.70;;;;;;;23.16;40.45;98802.50;4975544;28;20626;-66
2022/06/17 07:29:13;;;;;;;2.30;2.10;;;;;;;23.24;40.13;98802.41;4975613;28;20042;-66
2022/06/17 07:31:41;;;;;;;5.03;2.08;;;;;;;23.39;40.81;98800.19;4975310;28;20050;-66
2022/06/17 07:34:06;;;;;;;3.95;2.25;;;;;;;23.54;39.88;98797.59;4975358;28;20483;-66
2022/06/17 07:42:03;;;;;;;4.32;2.40;;;;;;;23.50;39.45;98791.28;4975252;28;20066;-66
2022/06/17 07:44:29;;;;;;;2.47;2.17;;;;;;;23.55;38.07;98796.44;4957909;28;20049;-66
2022/06/17 07:46:55;;;;;;;3.60;2.08;;;;;;;23.48;37.85;98793.53;4942083;28;20043;-66
2022/06/17 07:49:21;;;;;;;2.40;1.98;;;;;;;23.30;38.22;98784.84;4974930;28;20564;-67
2022/06/17 07:51:47;;;;;;;8.65;2.33;;;;;;;23.18;39.27;98797.53;4975296;28;20189;-67
2022/06/17 07:54:13;;;;;;;2.80;2.20;;;;;;;23.01;39.70;98798.53;4974974;28;20129;-66
2022/06/17 07:56:38;;;;;;;6.13;2.42;;;;;;;22.90;39.80;98804.31;4975088;28;20043;-68
2022/06/17 07:59:04;;;;;;;2.28;1.90;;;;;;;22.70;40.53;98805.13;4957507;28;20042;-65
2022/06/17 08:01:30;;;;;;;2.38;1.92;;;;;;;22.43;41.81;98806.50;4973925;28;20046;-69
2022/06/17 08:03:56;;;;;;;6.90;2.35;;;;;;;22.17;42.21;98803.97;4974822;28;20109;-69
2022/06/17 08:06:22;;;;;;;2.95;2.00;;;;;;;22.14;42.75;98805.38;4975008;28;20057;-66
2022/06/17 08:08:48;;;;;;;3.85;2.38;;;;;;;22.04;43.82;98808.50;4974752;28;20461;-66
2022/06/17 08:11:14;;;;;;;3.78;1.90;;;;;;;21.91;43.95;98804.09;4974935;28;20050;-67
2022/06/17 08:13:40;;;;;;;5.40;2.15;;;;;;;22.07;43.53;98799.72;4974781;28;20051;-66
2022/06/17 08:16:08;;;;;;;6.30;2.10;;;;;;;22.39;43.70;98797.47;4941289;28;20062;-65
2022/06/17 08:18:35;;;;;;;2.60;1.90;;;;;;;22.63;42.75;98792.19;4974404;28;20045;-66
2022/06/17 08:21:01;;;;;;;4.35;2.30;;;;;;;22.82;42.60;98796.28;4957226;28;20583;-67
2022/06/17 08:23:26;;;;;;;2.70;1.80;;;;;;;23.11;41.39;98785.38;4974722;28;20050;-66
2022/06/17 08:25:52;;;;;;;3.72;2.00;;;;;;;23.48;39.88;98780.00;4974793;28;20556;-67
2022/06/17 08:28:19;;;;;;;1.80;1.60;;;;;;;23.78;39.63;98779.81;4974538;28;20043;-67
2022/06/17 08:30:47;;;;;;;6.38;3.13;;;;;;;24.07;38.31;98773.34;4974367;28;20039;-66
2022/06/17 08:33:14;;;;;;;2.60;2.00;;;;;;;24.33;37.84;98775.63;4973985;28;20054;-68
2022/06/17 08:35:42;;;;;;;8.30;4.65;;;;;;;24.28;38.60;98775.88;4957108;28;20549;-68
2022/06/17 08:38:10;;;;;;;4.68;2.65;;;;;;;24.10;38.27;98780.78;4956926;28;20077;-67
2022/06/17 08:40:38;;;;;;;5.03;2.30;;;;;;;24.25;38.53;98771.94;4974637;28;20138;-65
2022/06/17 08:43:21;;;;;;;2.53;2.28;;;;;;;24.50;39.52;98773.78;4973854;28;20448;-65
2022/06/17 08:46:07;;;;;;;3.25;2.20;;;;;;;24.41;38.57;98779.31;4973957;28;20541;-67
2022/06/17 08:49:08;;;;;;;4.75;2.35;;;;;;;24.13;38.88;98779.31;4974172;28;20468;-66
2022/06/17 08:52:11;;;;;;;3.97;2.30;;;;;;;23.99;39.03;98788.56;4933533;28;20059;-68
2022/06/17 08:54:45;;;;;;;3.75;2.47;;;;;;;23.76;40.13;98782.84;4974082;28;20069;-66
2022/06/17 08:57:23;;;;;;;12.35;3.00;;;;;;;23.54;40.98;98783.28;4956576;28;20046;-67
2022/06/17 08:59:54;;;;;;;6.88;2.63;;;;;;;23.33;42.88;98805.81;4974059;28;20049;-66
2022/06/17 09:02:23;;;;;;;8.57;2.10;;;;;;;22.35;44.36;98810.81;4973943;28;20047;-65
2022/06/17 09:04:53;;;;;;;8.07;2.45;;;;;;;21.45;47.28;98822.75;4974057;28;20043;-65
2022/06/17 09:07:42;;;;;;;9.63;2.50;;;;;;;20.83;53.11;98832.06;4974000;28;20046;-66
2022/06/17 09:10:08;;;;;;;10.02;2.88;;;;;;;19.83;57.95;98842.84;4929644;28;20058;-67
2022/06/17 09:12:42;;;;;;;4.75;2.85;;;;;;;19.00;67.10;98854.06;4956045;28;20059;-68
2022/06/17 09:15:31;;;;;;;9.30;3.13;;;;;;;18.39;72.86;98864.31;4973607;28;20074;-66
2022/06/17 09:17:57;;;;;;;4.47;2.75;;;;;;;17.93;70.86;98873.28;4973450;28;20042;-66
2022/06/17 09:20:29;;;;;;;3.80;2.40;;;;;;;17.74;70.22;98868.00;4973926;28;20038;-67
2022/06/17 09:22:58;;;;;;;4.43;2.83;;;;;;;17.64;72.07;98860.91;4940184;28;20070;-66
2022/06/17 09:25:36;;;;;;;4.45;2.67;;;;;;;17.72;70.00;98856.78;4924441;28;20043;-66
2022/06/17 09:28:02;;;;;;;6.50;3.92;;;;;;;17.92;68.97;98850.25;4956315;28;20416;-67
2022/06/17 09:30:35;;;;;;;3.90;2.90;;;;;;;18.05;68.20;98836.03;4956091;28;20042;-65
2022/06/17 09:33:23;;;;;;;6.55;2.80;;;;;;;18.12;66.22;98841.00;4955704;28;20169;-64
2022/06/17 09:35:58;;;;;;;4.60;3.00;;;;;;;18.27;65.13;98845.25;4955770;28;20093;-68
2022/06/17 09:38:27;;;;;;;6.22;2.50;;;;;;;18.42;63.99;98846.81;4973044;28;20066;-66
2022/06/17 09:40:57;;;;;;;7.00;2.90;;;;;;;18.59;63.26;98842.38;4973009;28;20053;-66
2022/06/17 09:43:29;;;;;;;5.95;3.17;;;;;;;18.80;61.60;98840.06;4972960;28;20073;-67
2022/06/17 09:46:13;;;;;;;8.07;2.90;;;;;;;19.13;61.36;98830.94;4972571;28;20440;-66
2022/06/17 09:48:52;;;;;;;7.13;4.85;;;;;;;19.43;61.12;98823.97;4955605;28;20065;-65
2022/06/17 09:51:38;;;;;;;7.78;3.38;;;;;;;19.77;60.57;98828.75;4972703;28;20063;-66
2022/06/17 09:54:39;;;;;;;5.03;2.90;;;;;;;20.16;57.93;98821.72;4972699;28;20137;-67
2022/06/17 09:57:52;;;;;;;4.05;2.85;;;;;;;20.62;56.61;98828.44;4930180;28;20047;-67
2022/06/17 10:00:20;;;;;;;5.20;2.80;;;;;;;20.95;55.10;98825.22;4948796;28;20398;-65
2022/06/17 10:03:18;;;;;;;4.90;2.70;;;;;;;21.25;54.06;98829.59;4955494;28;20583;-67
2022/06/17 10:06:12;;;;;;;4.22;2.58;;;;;;;21.30;53.09;98817.84;4929382;28;20513;-65
2022/06/17 10:09:05;;;;;;;4.13;2.90;;;;;;;21.39;53.86;98813.25;4972491;28;20042;-67
2022/06/17 10:11:34;;;;;;;6.43;3.20;;;;;;;21.55;52.35;98808.09;4962102;28;20053;-67
2022/06/17 10:14:14;;;;;;;8.52;5.32;;;;;;;21.62;50.24;98819.19;4972760;28;20054;-65
2022/06/17 10:20:09;;;;;;;4.97;2.33;;;;;;;21.21;50.39;98809.00;4958030;28;20042;-67
2022/06/17 10:22:41;;;;;;;2.83;2.13;;;;;;;21.31;51.03;98800.56;4935823;28;20533;-66
2022/06/17 10:25:31;;;;;;;3.75;1.92;;;;;;;21.51;50.89;98796.41;4971801;28;20061;-66
2022/06/17 10:28:02;;;;;;;;;;;;;;;21.73;50.16;98792.63;4972653;28;20050;-67
2022/06/17 10:30:54;;;;;;;5.40;3.60;;;;;;;21.96;48.57;98791.22;4939270;28;19929;-67
2022/06/17 10:33:20;;;;;;;6.00;4.53;;;;;;;22.16;49.31;98783.47;4954833;28;20513;-67
2022/06/17 10:35:47;;;;;;;8.40;5.38;;;;;;;22.34;48.66;98779.56;4954655;28;20046;-67
2022/06/17 10:38:26;;;;;;;6.45;4.47;;;;;;;22.26;47.43;98766.91;4922936;28;20039;-68
2022/06/17 10:40:52;;;;;;;6.28;4.20;;;;;;;22.36;47.97;98771.13;4955311;28;20182;-67
2022/06/17 10:43:21;;;;;;;8.90;5.95;;;;;;;22.63;46.76;98769.78;4972400;28;20141;-68
2022/06/17 10:45:48;;;;;;;6.00;4.53;;;;;;;22.73;46.96;98763.94;4954822;28;20043;-66
2022/06/17 10:48:20;;;;;;;5.40;4.10;;;;;;;22.89;47.03;98766.84;4954746;28;20047;-68
2022/06/17 10:50:46;;;;;;;3.35;2.45;;;;;;;22.98;43.70;98762.16;4972274;28;20528;-68
2022/06/17 10:53:24;;;;;;;3.90;2.03;;;;;;;22.89;42.54;98766.84;4954786;28;20078;-68
2022/06/17 10:55:56;;;;;;;2.10;1.75;;;;;;;22.82;41.82;98767.34;4955242;28;20477;-67
2022/06/17 10:58:26;;;;;;;3.75;1.90;;;;;;;23.03;42.41;98780.88;4972176;28;20135;-69
2022/06/17 11:01:04;;;;;;;2.33;2.08;;;;;;;23.04;43.64;98777.03;4972206;28;20047;-66
2022/06/17 11:03:36;;;;;;;4.53;2.10;;;;;;;23.00;45.29;98772.63;4972065;28;20359;-67
2022/06/17 11:06:20;;;;;;;3.13;1.90;;;;;;;23.11;44.54;98777.25;4955201;28;20071;-67
2022/06/17 11:08:49;;;;;;;4.63;1.98;;;;;;;23.25;44.22;98779.66;4955162;28;20493;-67
2022/06/17 11:14:20;;;;;;;2.85;2.30;;;;;;;23.42;44.55;98783.28;4957330;28;20429;-67
2022/06/17 11:16:46;;;;;;;3.10;2.05;;;;;;;23.44;43.87;98778.31;4971927;28;20073;-68
2022/06/17 11:19:14;;;;;;;3.42;2.30;;;;;;;23.51;44.21;98787.44;4972264;28;20047;-67
2022/06/17 11:21:46;;;;;;;6.40;2.50;;;;;;;23.50;45.01;98793.19;4954701;28;20049;-67
2022/06/17 11:24:22;;;;;;;4.85;2.25;;;;;;;23.54;44.02;98786.78;4972164;28;20074;-66
2022/06/17 11:27:07;;;;;;;3.92;2.55;;;;;;;23.45;45.53;98777.19;4971823;28;20066;-67
2022/06/17 11:29:37;;;;;;;3.53;2.40;;;;;;;23.37;44.28;98778.09;4954423;28;20050;-68
2022/06/17 11:32:26;;;;;;;4.50;2.60;;;;;;;23.46;44.44;98768.72;4971773;28;20133;-67
2022/06/17 11:34:58;;;;;;;4.47;2.30;;;;;;;23.52;45.30;98761.97;4954731;28;20047;-67
2022/06/17 11:37:32;;;;;;;2.40;2.20;;;;;;;23.44;44.79;98754.78;4975154;28;20054;-68
2022/06/17 11:40:14;;;;;;;4.50;2.40;;;;;;;23.56;45.13;98749.34;4958181;28;20042;-67
2022/06/17 11:42:53;;;;;;;2.47;2.28;;;;;;;23.42;45.54;98759.72;4975274;28;20575;-67
2022/06/17 11:45:31;;;;;;;5.40;2.83;;;;;;;23.32;43.62;98763.66;4975647;28;20485;-67
2022/06/17 11:48:20;;;;;;;4.93;2.50;;;;;;;23.09;44.51;98760.59;4942800;28;20047;-67
2022/06/17 11:51:04;;;;;;;4.13;2.90;;;;;;;22.98;45.23;98774.88;4974694;28;20059;-68
2022/06/17 11:53:30;;;;;;;3.55;2.50;;;;;;;23.00;45.74;98767.19;4957718;28;20430;-67
2022/06/17 11:55:56;;;;;;;3.35;2.38;;;;;;;23.06;46.31;98774.78;4957648;28;20051;-68
2022/06/17 11:58:22;;;;;;;4.38;3.53;;;;;;;23.15;46.05;98779.28;4974780;28;20043;-68
2022/06/17 12:00:51;;;;;;;2.97;2.70;;;;;;;23.01;45.97;98775.00;4957568;28;20051;-68
2022/06/17 12:03:42;;;;;;;3.45;2.53;;;;;;;22.90;44.88;98776.50;4957443;28;20524;-68
2022/06/17 12:06:19;;;;;;;4.18;3.50;;;;;;;22.76;44.44;98776.78;4947694;28;20062;-67
2022/06/17 12:08:52;;;;;;;3.25;2.30;;;;;;;22.54;45.26;98769.06;4957404;28;20038;-66
2022/06/17 12:11:26;;;;;;;7.30;2.60;;;;;;;22.36;46.05;98776.53;4941537;28;20063;-67
2022/06/17 12:13:57;;;;;;;6.00;2.60;;;;;;;22.00;47.45;98789.47;4957418;28;20466;-67
2022/06/17 12:16:30;;;;;;;4.65;2.45;;;;;;;21.59;48.64;98797.44;4957366;28;20062;-67